Terminal Aerodrome Forecast
Issued by NWS Pittsburgh, PA

Current Version | Previous Version | Text Only | Print | Product List | Glossary Off
Versions: 1 2 3 4 5 6 7 8 9 10 11 12 13 14 15 16 17 18 19 20 21 22 23 24 25 26 27

000
FTUS41 KPBZ 271137
TAFPIT
TAF
KPIT 271137Z 2712/2818 VRB03KT 6SM BR SCT006
     FM271400 02005KT P6SM BKN035
     FM272100 01005KT P6SM SCT050
     FM280900 00000KT 5SM BR SKC
     FM281300 10005KT P6SM SCT035=

USA.gov is the U.S. government's official web portal to all federal, state and local government web resources and services.